Time;durP1;ratioP1;P1;durP2;ratioP2;P2;SDS_P1;SDS_P2;PMS_P1;PMS_P2;Temp;Humidity;BMP_temperature;BMP_pressure;BME280_temperature;BME280_humidity;BME280_pressure;Samples;Min_cycle;Max_cycle;Signal;HPM_P1;HPM_P2
2022/07/25 00:00:36;;;;;;;0.00;0.00;;;21.70;99.90;226.50;231333.00;;;;5033524;28;20703;-77
2022/07/25 00:03:05;;;;;;;0.00;0.00;;;21.80;99.90;226.50;231333.00;;;;5032918;28;20199;-75
2022/07/25 00:05:37;;;;;;;0.00;0.00;;;21.70;99.90;226.50;231333.00;;;;5033076;28;20222;-74
2022/07/25 00:08:07;;;;;;;0.00;0.00;;;21.70;99.90;226.50;231333.00;;;;5032723;28;20199;-74
2022/07/25 00:10:35;;;;;;;0.00;0.00;;;21.70;99.90;226.50;231333.00;;;;5023275;28;20215;-74
2022/07/25 00:13:03;;;;;;;0.00;0.00;;;21.50;99.90;226.50;231333.00;;;;5015077;28;20188;-74
2022/07/25 00:15:31;;;;;;;0.00;0.00;;;21.50;99.90;226.50;231333.00;;;;5029510;28;20206;-74
2022/07/25 00:17:59;;;;;;;0.00;0.00;;;21.60;99.90;226.50;231333.00;;;;5032823;28;20229;-74
2022/07/25 00:20:27;;;;;;;0.00;0.00;;;21.40;99.90;226.50;231333.00;;;;5033030;28;20218;-73
2022/07/25 00:22:55;;;;;;;0.00;0.00;;;21.40;99.90;226.50;231333.00;;;;5032721;28;20206;-76
2022/07/25 00:25:24;;;;;;;0.00;0.00;;;21.40;99.90;226.50;231333.00;;;;5032283;28;20191;-76
2022/07/25 00:27:52;;;;;;;0.00;0.00;;;21.40;99.90;226.50;231333.00;;;;5022296;28;20207;-76
2022/07/25 00:30:20;;;;;;;0.00;0.00;;;21.40;99.90;226.50;231333.00;;;;5031535;28;20304;-75
2022/07/25 00:32:48;;;;;;;0.00;0.00;;;21.50;99.90;226.50;231333.00;;;;5033488;28;20577;-75
2022/07/25 00:35:16;;;;;;;0.00;0.00;;;21.40;99.90;226.50;231333.00;;;;5029725;28;20206;-75
2022/07/25 00:37:44;;;;;;;0.00;0.00;;;21.20;99.90;226.50;231333.00;;;;5030614;28;20226;-75
2022/07/25 00:40:13;;;;;;;0.00;0.00;;;21.40;99.90;226.50;231333.00;;;;5024398;28;20223;-75
2022/07/25 00:42:42;;;;;;;0.00;0.00;;;21.40;99.90;226.50;231333.00;;;;5023902;28;20198;-75
2022/07/25 00:45:11;;;;;;;0.00;0.00;;;21.40;99.90;226.50;231333.00;;;;5022687;28;20199;-75
2022/07/25 00:47:39;;;;;;;0.00;0.00;;;21.30;99.90;226.50;231333.00;;;;5023197;28;20199;-74
2022/07/25 00:50:08;;;;;;;0.00;0.00;;;21.20;99.90;226.50;231333.00;;;;5020981;28;20234;-75
2022/07/25 00:52:36;;;;;;;0.00;0.00;;;21.30;99.90;226.50;231333.00;;;;5032922;28;20677;-75
2022/07/25 00:55:06;;;;;;;0.00;0.00;;;21.20;99.90;226.50;231333.00;;;;5030692;28;20195;-75
2022/07/25 00:57:34;;;;;;;0.00;0.00;;;21.20;99.90;226.50;231333.00;;;;5032031;28;20214;-75
2022/07/25 01:00:07;;;;;;;0.00;0.00;;;21.20;99.90;226.50;231333.00;;;;5030868;28;20689;-75
2022/07/25 01:02:35;;;;;;;0.00;0.00;;;21.20;99.90;226.50;231333.00;;;;5032620;28;20669;-74
2022/07/25 01:05:05;;;;;;;0.00;0.00;;;21.30;99.90;226.50;231333.00;;;;5021993;28;20199;-75
2022/07/25 01:07:33;;;;;;;0.00;0.00;;;21.20;99.90;226.50;231333.00;;;;5029211;28;20654;-75
2022/07/25 01:10:01;;;;;;;0.00;0.00;;;21.20;99.90;226.50;231333.00;;;;5028036;28;20687;-75
2022/07/25 01:12:29;;;;;;;0.00;0.00;;;21.30;99.90;226.50;231333.00;;;;5012883;28;20200;-76
2022/07/25 01:14:58;;;;;;;0.00;0.00;;;21.30;99.90;226.50;231333.00;;;;5022751;28;20544;-76
2022/07/25 01:17:27;;;;;;;0.00;0.00;;;21.30;99.90;226.50;231333.00;;;;5032003;28;20226;-76
2022/07/25 01:19:55;;;;;;;0.00;0.00;;;21.30;99.90;226.50;231333.00;;;;5031516;28;20230;-78
2022/07/25 01:22:24;;;;;;;0.00;0.00;;;21.30;99.90;226.50;231333.00;;;;5031653;28;20221;-75
2022/07/25 01:24:52;;;;;;;0.00;0.00;;;21.20;99.90;226.50;231333.00;;;;5027339;28;20203;-77
2022/07/25 01:27:20;;;;;;;0.00;0.00;;;21.20;99.90;226.50;231333.00;;;;5031477;28;20300;-75
2022/07/25 01:29:48;;;;;;;0.00;0.00;;;21.20;99.90;226.50;231333.00;;;;5031774;28;20226;-74
2022/07/25 01:32:16;;;;;;;0.00;0.00;;;21.10;99.90;226.50;231333.00;;;;5031615;28;20210;-74
2022/07/25 01:34:44;;;;;;;0.00;0.00;;;21.00;99.90;226.50;231333.00;;;;5030592;28;20203;-75
2022/07/25 01:37:12;;;;;;;0.00;0.00;;;21.00;99.90;226.50;231333.00;;;;5019778;28;20218;-74
2022/07/25 01:39:41;;;;;;;0.00;0.00;;;20.90;99.90;226.50;231333.00;;;;5031010;28;20222;-74
2022/07/25 01:42:09;;;;;;;0.00;0.00;;;20.90;99.90;226.50;231333.00;;;;5023026;28;20199;-75
2022/07/25 01:44:37;;;;;;;0.00;0.00;;;20.90;99.90;226.50;231333.00;;;;5019002;28;20199;-76
2022/07/25 01:47:05;;;;;;;0.00;0.00;;;21.10;99.90;226.50;231333.00;;;;5031807;28;20187;-76
2022/07/25 01:49:34;;;;;;;0.00;0.00;;;21.00;99.90;226.50;231333.00;;;;5031205;28;20254;-73
2022/07/25 01:52:02;;;;;;;0.00;0.00;;;21.00;99.90;226.50;231333.00;;;;5031377;28;20214;-73
2022/07/25 01:54:31;;;;;;;0.00;0.00;;;21.00;99.90;226.50;231333.00;;;;5031263;28;20202;-73
2022/07/25 01:57:00;;;;;;;0.00;0.00;;;20.90;99.90;226.50;231333.00;;;;5029571;28;20578;-74
2022/07/25 01:59:28;;;;;;;0.00;0.00;;;20.80;99.90;226.50;231333.00;;;;5018330;28;20223;-73
2022/07/25 02:01:56;;;;;;;0.00;0.00;;;20.90;99.90;226.50;231333.00;;;;5011877;28;20725;-73
2022/07/25 02:04:24;;;;;;;0.00;0.00;;;20.90;99.90;226.50;231333.00;;;;5018594;28;20199;-73
2022/07/25 02:06:52;;;;;;;0.00;0.00;;;20.80;99.90;226.50;231333.00;;;;5031697;28;20219;-73
2022/07/25 02:09:21;;;;;;;0.00;0.00;;;20.90;99.90;226.50;231333.00;;;;5028284;28;20702;-73
2022/07/25 02:11:49;;;;;;;0.00;0.00;;;21.00;99.90;226.50;231333.00;;;;5020072;28;20241;-72
2022/07/25 02:14:18;;;;;;;0.00;0.00;;;20.80;99.90;226.50;231333.00;;;;5016716;28;20760;-71
2022/07/25 02:16:46;;;;;;;0.00;0.00;;;20.80;99.90;226.50;231333.00;;;;5026775;28;20202;-73
2022/07/25 02:19:14;;;;;;;0.00;0.00;;;20.70;99.90;226.50;231333.00;;;;5015040;28;20722;-74
2022/07/25 02:21:43;;;;;;;0.00;0.00;;;20.70;99.90;226.50;231333.00;;;;5029228;28;20195;-73
2022/07/25 02:24:11;;;;;;;0.00;0.00;;;20.60;99.90;226.50;231333.00;;;;5034167;28;20201;-73
2022/07/25 02:26:39;;;;;;;0.00;0.00;;;20.70;99.90;226.50;231333.00;;;;5032141;28;20195;-73
2022/07/25 02:29:07;;;;;;;0.00;0.00;;;20.60;99.90;226.50;231333.00;;;;5040675;28;20205;-74
2022/07/25 02:31:36;;;;;;;0.00;0.00;;;20.80;99.90;226.50;231333.00;;;;5035438;28;20200;-74
2022/07/25 02:34:04;;;;;;;0.00;0.00;;;20.70;99.90;226.50;231333.00;;;;5034482;28;20206;-75
2022/07/25 02:36:32;;;;;;;0.00;0.00;;;20.80;99.90;226.50;231333.00;;;;5022206;28;20195;-75
2022/07/25 02:39:00;;;;;;;0.00;0.00;;;20.60;99.90;226.50;231333.00;;;;5034375;28;20272;-75
2022/07/25 02:41:28;;;;;;;0.00;0.00;;;20.60;99.90;226.50;231333.00;;;;5034508;28;20199;-75
2022/07/25 02:43:56;;;;;;;0.00;0.00;;;20.60;99.90;226.50;231333.00;;;;5034259;28;20409;-75
2022/07/25 02:46:24;;;;;;;0.00;0.00;;;20.60;99.90;226.50;231333.00;;;;5034304;28;20210;-75
2022/07/25 02:48:54;;;;;;;0.00;0.00;;;20.60;99.90;226.50;231333.00;;;;5034537;28;20258;-75
2022/07/25 02:51:22;;;;;;;0.00;0.00;;;20.40;99.90;226.50;231333.00;;;;5034466;28;20218;-76
2022/07/25 02:53:52;;;;;;;0.00;0.00;;;20.40;99.90;226.50;231333.00;;;;5023687;28;20245;-75
2022/07/25 02:56:26;;;;;;;0.00;0.00;;;20.50;99.90;226.50;231333.00;;;;5033500;28;20199;-75
2022/07/25 02:58:58;;;;;;;0.00;0.00;;;20.50;99.90;226.50;231333.00;;;;5034002;28;20230;-74
2022/07/25 03:01:27;;;;;;;0.00;0.00;;;20.50;99.90;226.50;231333.00;;;;5034402;28;20199;-75
2022/07/25 03:03:56;;;;;;;0.00;0.00;;;20.50;99.90;226.50;231333.00;;;;5034482;28;20201;-75
2022/07/25 03:06:24;;;;;;;0.00;0.00;;;20.50;99.90;226.50;231333.00;;;;5019328;28;20671;-76
2022/07/25 03:08:52;;;;;;;0.00;0.00;;;20.40;99.90;226.50;231333.00;;;;5034180;28;20199;-76
2022/07/25 03:11:21;;;;;;;0.00;0.00;;;20.40;99.90;226.50;231333.00;;;;5032829;28;20202;-74
2022/07/25 03:13:49;;;;;;;0.00;0.00;;;20.40;99.90;226.50;231333.00;;;;5023600;28;20195;-74
2022/07/25 03:16:17;;;;;;;0.00;0.00;;;20.40;99.90;226.50;231333.00;;;;5034137;28;20209;-73
2022/07/25 03:18:45;;;;;;;0.00;0.00;;;20.40;99.90;226.50;231333.00;;;;5034484;28;20211;-74
2022/07/25 03:21:15;;;;;;;0.00;0.00;;;20.30;99.90;226.50;231333.00;;;;5033763;28;20210;-74
2022/07/25 03:23:43;;;;;;;0.00;0.00;;;20.30;99.90;226.50;231333.00;;;;5034000;28;20188;-74
2022/07/25 03:26:16;;;;;;;0.00;0.00;;;20.30;99.90;226.50;231333.00;;;;5032493;28;20221;-75
2022/07/25 03:28:44;;;;;;;0.00;0.00;;;20.30;99.90;226.50;231333.00;;;;5018939;28;20203;-74
2022/07/25 03:31:12;;;;;;;0.00;0.00;;;20.20;99.90;226.50;231333.00;;;;5033820;28;20219;-74
2022/07/25 03:33:40;;;;;;;0.00;0.00;;;20.30;99.90;226.50;231333.00;;;;5033526;28;20611;-73
2022/07/25 03:36:09;;;;;;;0.00;0.00;;;20.30;99.90;226.50;231333.00;;;;5032620;28;20194;-73
2022/07/25 03:38:39;;;;;;;0.00;0.00;;;20.30;99.90;226.50;231333.00;;;;5033524;28;20272;-74
2022/07/25 03:41:07;;;;;;;0.00;0.00;;;20.30;99.90;226.50;231333.00;;;;5033885;28;20223;-74
2022/07/25 03:43:35;;;;;;;0.00;0.00;;;20.20;99.90;226.50;231333.00;;;;5026066;28;20240;-74
2022/07/25 03:46:03;;;;;;;0.00;0.00;;;20.30;99.90;226.50;231333.00;;;;5033668;28;20207;-74
2022/07/25 03:48:31;;;;;;;0.00;0.00;;;20.20;99.90;226.50;231333.00;;;;5019831;28;20708;-73
2022/07/25 03:51:01;;;;;;;0.00;0.00;;;20.20;99.90;226.50;231333.00;;;;5016713;28;20215;-73
2022/07/25 03:54:00;;;;;;;0.00;0.00;;;20.20;99.90;226.50;231333.00;;;;5024766;28;20199;-73
2022/07/25 03:56:24;;;;;;;0.00;0.00;;;20.20;99.90;226.50;231333.00;;;;5022468;28;20195;-74
2022/07/25 03:58:52;;;;;;;0.00;0.00;;;20.20;99.90;226.50;231333.00;;;;5033136;28;20222;-73
2022/07/25 04:01:20;;;;;;;0.00;0.00;;;20.20;99.90;226.50;231333.00;;;;5033389;28;20608;-73
2022/07/25 04:03:49;;;;;;;0.00;0.00;;;20.10;99.90;226.50;231333.00;;;;5033436;28;20195;-74
2022/07/25 04:06:17;;;;;;;0.00;0.00;;;20.00;99.90;226.50;231333.00;;;;5025841;28;20206;-73
2022/07/25 04:08:46;;;;;;;0.00;0.00;;;20.10;99.90;226.50;231333.00;;;;5026200;28;20198;-73
2022/07/25 04:11:14;;;;;;;0.00;0.00;;;20.10;99.90;226.50;231333.00;;;;5032785;28;20218;-73
2022/07/25 04:13:43;;;;;;;0.00;0.00;;;20.20;99.90;226.50;231333.00;;;;5033042;28;20533;-73
2022/07/25 04:16:12;;;;;;;0.00;0.00;;;20.10;99.90;226.50;231333.00;;;;5032848;28;20199;-72
2022/07/25 04:18:49;;;;;;;0.00;0.00;;;20.10;99.90;226.50;231333.00;;;;5032808;28;20783;-73
2022/07/25 04:21:18;;;;;;;0.00;0.00;;;20.20;99.90;226.50;231333.00;;;;5027878;28;20226;-74
2022/07/25 04:23:47;;;;;;;0.10;0.10;;;20.10;99.90;226.50;231333.00;;;;5031128;28;20201;-75
2022/07/25 04:26:15;;;;;;;0.00;0.00;;;20.10;99.90;226.50;231333.00;;;;5031463;28;20250;-73
2022/07/25 04:28:44;;;;;;;0.00;0.00;;;20.00;99.90;226.50;231333.00;;;;5032847;28;20666;-73
2022/07/25 04:31:12;;;;;;;0.00;0.00;;;20.10;99.90;226.50;231333.00;;;;5032911;28;20214;-74
2022/07/25 04:33:42;;;;;;;0.00;0.00;;;20.10;99.90;226.50;231333.00;;;;5032571;28;20205;-74
2022/07/25 04:36:10;;;;;;;0.00;0.00;;;20.10;99.90;226.50;231333.00;;;;5032521;28;20191;-73
2022/07/25 04:38:38;;;;;;;0.00;0.00;;;20.20;99.90;226.50;231333.00;;;;5032404;28;20666;-74
2022/07/25 04:41:06;;;;;;;0.00;0.00;;;20.20;99.90;226.50;231333.00;;;;5019082;28;20278;-74
2022/07/25 04:43:34;;;;;;;0.00;0.00;;;20.20;99.90;226.50;231333.00;;;;5043770;28;20217;-73
2022/07/25 04:46:03;;;;;;;0.00;0.00;;;20.30;99.90;226.50;231333.00;;;;5023696;28;20214;-73
2022/07/25 04:48:32;;;;;;;0.00;0.00;;;20.30;99.90;226.50;231333.00;;;;5026156;28;20579;-72
2022/07/25 04:51:00;;;;;;;0.00;0.00;;;20.40;99.90;226.50;231333.00;;;;5030421;28;20253;-74
2022/07/25 04:53:28;;;;;;;0.00;0.00;;;20.40;99.90;226.50;231333.00;;;;5032133;28;20697;-73
2022/07/25 04:55:56;;;;;;;0.00;0.00;;;20.50;99.90;226.50;231333.00;;;;5032162;28;20206;-73
2022/07/25 04:58:24;;;;;;;0.00;0.00;;;20.50;99.90;226.50;231333.00;;;;5032165;28;20202;-72
2022/07/25 05:00:52;;;;;;;0.00;0.00;;;20.60;99.90;226.50;231333.00;;;;5032195;28;20694;-72
2022/07/25 05:03:21;;;;;;;0.00;0.00;;;20.60;99.90;226.50;231333.00;;;;5031382;28;20658;-72
2022/07/25 05:05:50;;;;;;;0.00;0.00;;;20.70;99.90;226.50;231333.00;;;;5031719;28;20217;-72
2022/07/25 05:08:18;;;;;;;0.00;0.00;;;20.80;99.90;226.50;231333.00;;;;5031635;28;20210;-72
2022/07/25 05:10:46;;;;;;;0.00;0.00;;;20.80;99.90;226.50;231333.00;;;;5032027;28;20219;-73
2022/07/25 05:13:15;;;;;;;0.00;0.00;;;20.90;99.90;226.50;231333.00;;;;5047171;28;20187;-72
2022/07/25 05:15:43;;;;;;;0.00;0.00;;;20.90;99.90;226.50;231333.00;;;;5032427;28;20567;-72
2022/07/25 05:18:11;;;;;;;0.00;0.00;;;21.00;99.90;226.50;231333.00;;;;5014157;28;20679;-72
2022/07/25 05:20:40;;;;;;;0.00;0.00;;;21.10;99.90;226.50;231333.00;;;;5012317;28;20232;-73
2022/07/25 05:23:08;;;;;;;0.00;0.00;;;21.20;99.90;226.50;231333.00;;;;5028349;28;20198;-73
2022/07/25 05:25:36;;;;;;;0.00;0.00;;;21.30;99.90;226.50;231333.00;;;;5031635;28;20195;-71
2022/07/25 05:28:05;;;;;;;0.00;0.00;;;21.30;99.90;226.50;231333.00;;;;5023892;28;20194;-71
2022/07/25 05:30:33;;;;;;;0.00;0.00;;;21.40;99.90;226.50;231333.00;;;;5031905;28;20211;-71
2022/07/25 05:33:06;;;;;;;0.00;0.00;;;21.50;99.90;226.50;231333.00;;;;5031665;28;20607;-71
2022/07/25 05:35:35;;;;;;;0.00;0.00;;;21.60;99.90;226.50;231333.00;;;;5031766;28;20202;-70
2022/07/25 05:38:05;;;;;;;0.00;0.00;;;21.70;99.90;226.50;231333.00;;;;5024708;28;20191;-71
2022/07/25 05:40:33;;;;;;;0.00;0.00;;;21.70;99.90;226.50;231333.00;;;;5013883;28;20230;-71
2022/07/25 05:43:01;;;;;;;0.00;0.00;;;21.70;99.90;226.50;231333.00;;;;5031535;28;20682;-71
2022/07/25 05:45:31;;;;;;;0.00;0.00;;;21.80;99.90;226.50;231333.00;;;;5031264;28;20195;-71
2022/07/25 05:47:59;;;;;;;0.00;0.00;;;21.90;99.90;226.50;231333.00;;;;5031410;28;20561;-70
2022/07/25 05:50:27;;;;;;;0.00;0.00;;;22.00;99.90;226.50;231333.00;;;;5030990;28;20218;-70
2022/07/25 05:52:55;;;;;;;0.00;0.00;;;22.10;99.90;226.50;231333.00;;;;5031961;28;20191;-70
2022/07/25 05:55:24;;;;;;;0.00;0.00;;;22.20;99.90;226.50;231333.00;;;;5031382;28;20607;-71
2022/07/25 05:57:53;;;;;;;0.00;0.00;;;22.30;99.90;226.50;231333.00;;;;5031832;28;20198;-71
2022/07/25 06:00:21;;;;;;;0.00;0.00;;;22.40;99.90;226.50;231333.00;;;;5031403;28;20222;-71
2022/07/25 06:02:49;;;;;;;0.00;0.00;;;22.50;99.90;226.50;231333.00;;;;5031654;28;20555;-71
2022/07/25 06:05:17;;;;;;;0.00;0.00;;;22.60;99.90;226.50;231333.00;;;;5046736;28;20264;-71
2022/07/25 06:07:45;;;;;;;0.00;0.00;;;22.70;99.90;226.50;231333.00;;;;5031317;28;20659;-70
2022/07/25 06:10:13;;;;;;;0.00;0.00;;;22.80;99.90;226.50;231333.00;;;;5031007;28;20716;-70
2022/07/25 06:12:42;;;;;;;0.00;0.00;;;22.90;99.90;226.50;231333.00;;;;5031527;28;20685;-71
2022/07/25 06:15:12;;;;;;;0.00;0.00;;;23.00;99.90;226.50;231333.00;;;;5031440;28;20201;-71
2022/07/25 06:17:50;;;;;;;0.00;0.00;;;23.10;99.90;226.50;231333.00;;;;5031580;28;20230;-71
2022/07/25 06:20:18;;;;;;;0.00;0.00;;;23.20;99.90;226.50;231333.00;;;;5035272;28;20650;-71
2022/07/25 06:22:46;;;;;;;0.00;0.00;;;23.30;99.90;226.50;231333.00;;;;5031260;28;20666;-71
2022/07/25 06:25:14;;;;;;;0.00;0.00;;;23.30;99.90;226.50;231333.00;;;;5033092;28;20195;-71
2022/07/25 06:27:44;;;;;;;0.00;0.00;;;23.40;99.90;226.50;231333.00;;;;5031259;28;20191;-71
2022/07/25 06:30:13;;;;;;;0.00;0.00;;;23.50;99.90;226.50;231333.00;;;;5031939;28;20214;-71
2022/07/25 06:32:46;;;;;;;0.00;0.00;;;23.60;99.90;226.50;231333.00;;;;5031418;28;20237;-70
2022/07/25 06:35:15;;;;;;;0.00;0.00;;;23.70;99.90;226.50;231333.00;;;;5030688;28;20224;-71
2022/07/25 06:37:43;;;;;;;0.00;0.00;;;23.80;99.90;226.50;231333.00;;;;5030824;28;20554;-71
2022/07/25 06:40:11;;;;;;;0.00;0.00;;;23.90;99.90;226.50;231333.00;;;;5030620;28;20223;-71
2022/07/25 06:42:40;;;;;;;0.00;0.00;;;24.00;99.90;226.50;231333.00;;;;5031220;28;20203;-70
2022/07/25 06:45:11;;;;;;;0.00;0.00;;;24.10;99.90;226.50;231333.00;;;;5031059;28;20191;-72
2022/07/25 06:47:41;;;;;;;0.00;0.00;;;24.20;99.90;226.50;231333.00;;;;5031431;28;20206;-71
2022/07/25 06:50:12;;;;;;;0.00;0.00;;;24.30;99.90;226.50;231333.00;;;;5028593;28;20219;-70
2022/07/25 06:52:41;;;;;;;0.00;0.00;;;24.40;99.90;226.50;231333.00;;;;5024705;28;20542;-70
2022/07/25 06:55:12;;;;;;;0.00;0.00;;;24.60;99.90;226.50;231333.00;;;;5017701;28;20685;-70
2022/07/25 06:57:40;;;;;;;0.00;0.00;;;24.70;99.90;226.50;231333.00;;;;5011241;28;20583;-70
2022/07/25 07:00:13;;;;;;;0.00;0.00;;;24.80;99.90;226.50;231333.00;;;;5011097;28;20219;-70
2022/07/25 07:02:54;;;;;;;0.00;0.00;;;25.00;99.90;226.50;231333.00;;;;5012589;28;20584;-71
2022/07/25 07:05:24;;;;;;;0.00;0.00;;;25.10;99.90;226.50;231333.00;;;;5014685;28;20390;-70
2022/07/25 07:07:52;;;;;;;0.00;0.00;;;25.30;99.90;226.50;231333.00;;;;5014518;28;20200;-71
2022/07/25 07:10:21;;;;;;;0.00;0.00;;;25.40;99.90;226.50;231333.00;;;;5014580;28;20242;-71
2022/07/25 07:12:51;;;;;;;0.00;0.00;;;25.70;99.90;226.50;231333.00;;;;5015358;28;20227;-71
2022/07/25 07:15:20;;;;;;;0.00;0.00;;;25.90;99.90;226.50;231333.00;;;;5014601;28;20278;-71
2022/07/25 07:17:49;;;;;;;0.00;0.00;;;26.10;99.90;226.50;231333.00;;;;5014291;28;20192;-71
2022/07/25 07:20:17;;;;;;;0.00;0.00;;;26.20;99.90;226.50;231333.00;;;;5014109;28;20238;-71
2022/07/25 07:22:46;;;;;;;0.00;0.00;;;26.40;99.90;226.50;231333.00;;;;5014658;28;20199;-71
2022/07/25 07:25:16;;;;;;;0.00;0.00;;;26.60;99.90;226.50;231333.00;;;;5014655;28;20507;-72
2022/07/25 07:27:47;;;;;;;0.00;0.00;;;26.70;99.90;226.50;231333.00;;;;5015001;28;20196;-71
2022/07/25 07:30:15;;;;;;;0.00;0.00;;;27.00;99.90;226.50;231333.00;;;;5015343;28;20215;-71
2022/07/25 07:32:52;;;;;;;0.00;0.00;;;27.20;99.90;226.50;231333.00;;;;5014659;28;20199;-71
2022/07/25 07:35:20;;;;;;;0.00;0.00;;;27.40;99.90;226.50;231333.00;;;;5015823;28;20632;-71
2022/07/25 07:37:49;;;;;;;0.00;0.00;;;27.50;99.70;226.50;231333.00;;;;5015121;28;20195;-71
2022/07/25 07:40:17;;;;;;;0.00;0.00;;;27.70;99.40;226.50;231333.00;;;;5015001;28;20223;-71
2022/07/25 07:42:48;;;;;;;0.00;0.00;;;27.80;99.10;226.50;231333.00;;;;5014401;28;20198;-71
2022/07/25 07:45:20;;;;;;;0.00;0.00;;;28.00;98.70;226.50;231333.00;;;;5014445;28;20558;-71
2022/07/25 07:47:52;;;;;;;0.00;0.00;;;28.10;98.50;226.50;231333.00;;;;5014265;28;20246;-71
2022/07/25 07:50:24;;;;;;;0.00;0.00;;;28.20;98.30;226.50;231333.00;;;;5014150;28;20592;-71
2022/07/25 07:52:54;;;;;;;0.00;0.00;;;28.30;97.90;226.50;231333.00;;;;5014099;28;20561;-71
2022/07/25 07:58:09;;;;;;;0.00;0.00;;;28.60;97.70;226.50;231333.00;;;;5013327;28;20203;-72
2022/07/25 08:00:39;;;;;;;0.00;0.00;;;28.70;97.40;226.50;231333.00;;;;5013985;28;20220;-72
2022/07/25 08:03:09;;;;;;;0.00;0.00;;;28.90;96.60;226.50;231333.00;;;;5014032;28;20488;-72
2022/07/25 08:05:40;;;;;;;0.00;0.00;;;29.00;95.90;226.50;231333.00;;;;5014258;28;20192;-72
2022/07/25 08:08:13;;;;;;;0.00;0.00;;;29.00;95.50;226.50;231333.00;;;;5013407;28;20196;-70
2022/07/25 08:10:44;;;;;;;0.00;0.00;;;29.20;95.20;226.50;231333.00;;;;5013646;28;20228;-71
2022/07/25 08:13:14;;;;;;;0.00;0.00;;;29.20;95.00;226.50;231333.00;;;;5013109;28;20188;-71
2022/07/25 08:15:44;;;;;;;0.00;0.00;;;29.20;94.90;226.50;231333.00;;;;5013828;28;20199;-71
2022/07/25 08:18:14;;;;;;;0.00;0.00;;;29.40;94.70;226.50;231333.00;;;;5013161;28;20283;-72
2022/07/25 08:20:45;;;;;;;0.00;0.00;;;29.50;94.40;226.50;231333.00;;;;5013705;28;20752;-72
2022/07/25 08:23:13;;;;;;;0.00;0.00;;;29.60;94.00;226.50;231333.00;;;;5013366;28;20207;-71
2022/07/25 08:25:42;;;;;;;0.00;0.00;;;29.70;93.90;226.50;231333.00;;;;5013629;28;20196;-71
2022/07/25 08:28:10;;;;;;;0.00;0.00;;;29.80;93.50;226.50;231333.00;;;;5013164;28;20214;-72
2022/07/25 08:30:41;;;;;;;0.00;0.00;;;30.00;93.00;226.50;231333.00;;;;5013563;28;20203;-71
2022/07/25 08:33:12;;;;;;;0.00;0.00;;;30.00;92.60;226.50;231333.00;;;;5013163;28;20196;-72
2022/07/25 08:35:47;;;;;;;0.00;0.00;;;30.10;92.30;226.50;231333.00;;;;5012915;28;20211;-72
2022/07/25 08:38:17;;;;;;;0.00;0.00;;;30.30;92.10;226.50;231333.00;;;;5012988;28;20239;-72
2022/07/25 08:40:45;;;;;;;0.00;0.00;;;30.20;91.70;226.50;231333.00;;;;5012713;28;20224;-73
2022/07/25 08:43:16;;;;;;;0.00;0.00;;;30.30;91.50;226.50;231333.00;;;;5011898;28;20199;-72
2022/07/25 08:45:46;;;;;;;0.00;0.00;;;30.30;90.80;226.50;231333.00;;;;5013189;28;20254;-72
2022/07/25 08:48:18;;;;;;;0.00;0.00;;;30.20;90.80;226.50;231333.00;;;;5013754;28;20636;-73
2022/07/25 08:50:48;;;;;;;0.00;0.00;;;30.20;90.80;226.50;231333.00;;;;5032517;28;20222;-72
2022/07/25 08:53:19;;;;;;;0.00;0.00;;;30.40;90.50;226.50;231333.00;;;;5032726;28;20206;-72
2022/07/25 08:56:07;;;;;;;0.00;0.00;;;30.50;90.00;226.50;231333.00;;;;5032584;28;20246;-71
2022/07/25 08:58:43;;;;;;;0.00;0.00;;;30.60;89.90;226.50;231333.00;;;;5032427;28;20226;-72
2022/07/25 09:01:12;;;;;;;0.00;0.00;;;30.70;89.10;226.50;231333.00;;;;5031976;28;20280;-71
2022/07/25 09:03:42;;;;;;;0.00;0.00;;;30.70;88.70;226.50;231333.00;;;;5032803;28;20195;-71
2022/07/25 09:06:21;;;;;;;0.00;0.00;;;30.80;88.50;226.50;231333.00;;;;5032419;28;20218;-70
2022/07/25 09:08:55;;;;;;;0.00;0.00;;;30.70;88.00;226.50;231333.00;;;;5032839;28;20202;-71
2022/07/25 09:11:30;;;;;;;0.00;0.00;;;30.80;87.70;226.50;231333.00;;;;5032700;28;20825;-72
2022/07/25 09:14:01;;;;;;;0.00;0.00;;;30.90;88.00;226.50;231333.00;;;;5032859;28;20234;-71
2022/07/25 09:16:31;;;;;;;0.00;0.00;;;31.10;88.20;226.50;231333.00;;;;5034503;28;20462;-71
2022/07/25 09:19:10;;;;;;;0.00;0.00;;;31.30;86.00;226.50;231333.00;;;;5032999;28;20560;-72
2022/07/25 09:21:43;;;;;;;0.00;0.00;;;31.10;86.10;226.50;231333.00;;;;5032574;28;20329;-72
2022/07/25 09:24:16;;;;;;;0.00;0.00;;;31.30;86.30;226.50;231333.00;;;;5034622;28;20195;-72
2022/07/25 09:26:50;;;;;;;0.00;0.00;;;31.20;85.70;226.50;231333.00;;;;5037409;28;20195;-72
2022/07/25 09:29:23;;;;;;;0.00;0.00;;;31.30;86.00;226.50;231333.00;;;;5034436;28;20298;-71
2022/07/25 09:31:54;;;;;;;0.00;0.00;;;31.40;85.20;226.50;231333.00;;;;5037029;28;20260;-72
2022/07/25 09:34:34;;;;;;;0.00;0.00;;;31.40;85.40;226.50;231333.00;;;;5027637;28;20194;-72
2022/07/25 09:37:06;;;;;;;0.00;0.00;;;31.60;85.00;226.50;231333.00;;;;5032443;28;20207;-72
2022/07/25 09:39:42;;;;;;;0.00;0.00;;;31.70;85.20;226.50;231333.00;;;;5012087;28;20305;-72
2022/07/25 09:42:22;;;;;;;0.00;0.00;;;31.70;84.50;226.50;231333.00;;;;5019457;28;20218;-72
2022/07/25 09:45:08;;;;;;;0.00;0.00;;;31.70;84.90;226.50;231333.00;;;;5036143;28;20244;-72
2022/07/25 09:47:39;;;;;;;0.00;0.00;;;31.80;85.00;226.50;231333.00;;;;5041512;28;20198;-72
2022/07/25 09:50:08;;;;;;;0.00;0.00;;;32.00;84.00;226.50;231333.00;;;;5043098;28;20215;-72
2022/07/25 09:52:39;;;;;;;0.00;0.00;;;32.10;83.30;226.50;231333.00;;;;5041167;28;20205;-72
2022/07/25 09:55:09;;;;;;;0.00;0.00;;;32.20;83.40;226.50;231333.00;;;;5040490;28;20199;-72
2022/07/25 09:57:38;;;;;;;0.00;0.00;;;32.30;82.50;226.50;231333.00;;;;5038721;28;20201;-72
2022/07/25 10:00:08;;;;;;;0.00;0.00;;;32.30;82.60;226.50;231333.00;;;;5039143;28;20222;-72
2022/07/25 10:02:51;;;;;;;0.00;0.00;;;32.10;82.90;226.50;231333.00;;;;5038161;28;20690;-72
2022/07/25 10:05:37;;;;;;;0.00;0.00;;;32.20;83.20;226.50;231333.00;;;;5038255;28;20198;-72
2022/07/25 10:08:08;;;;;;;0.00;0.00;;;32.50;82.60;226.50;231333.00;;;;5038261;28;20198;-72
2022/07/25 10:10:42;;;;;;;0.00;0.00;;;32.50;82.40;226.50;231333.00;;;;5037384;28;20215;-71
2022/07/25 10:13:16;;;;;;;0.00;0.00;;;32.60;81.50;226.50;231333.00;;;;5038114;28;20209;-73
2022/07/25 10:15:51;;;;;;;0.00;0.00;;;32.60;81.20;226.50;231333.00;;;;5033444;28;20202;-72
2022/07/25 10:18:23;;;;;;;0.00;0.00;;;32.70;80.60;226.50;231333.00;;;;5032181;28;20217;-71
2022/07/25 10:20:56;;;;;;;0.00;0.00;;;32.60;80.80;226.50;231333.00;;;;5028423;28;20227;-72
2022/07/25 10:23:27;;;;;;;0.00;0.00;;;32.90;80.20;226.50;231333.00;;;;5019967;28;20727;-72
2022/07/25 10:26:08;;;;;;;0.00;0.00;;;33.20;79.40;226.50;231333.00;;;;5012173;28;20206;-73
2022/07/25 10:28:42;;;;;;;0.00;0.00;;;33.20;78.40;226.50;231333.00;;;;5011943;28;20666;-73
2022/07/25 10:31:23;;;;;;;0.00;0.00;;;33.20;76.50;226.50;231333.00;;;;5011556;28;20219;-71
2022/07/25 10:33:56;;;;;;;0.00;0.00;;;32.90;77.10;226.50;231333.00;;;;5011695;28;20732;-71
2022/07/25 10:36:27;;;;;;;0.00;0.00;;;33.00;77.60;226.50;231333.00;;;;5013998;28;20203;-72
2022/07/25 10:39:01;;;;;;;0.00;0.00;;;33.30;77.40;226.50;231333.00;;;;5015597;28;20686;-71
2022/07/25 10:41:29;;;;;;;0.00;0.00;;;33.50;77.10;226.50;231333.00;;;;5015717;28;20187;-72
2022/07/25 10:44:02;;;;;;;0.00;0.00;;;33.80;76.20;226.50;231333.00;;;;5033567;28;20223;-71
2022/07/25 10:46:34;;;;;;;0.00;0.00;;;33.60;75.80;226.50;231333.00;;;;5036168;28;20623;-72
2022/07/25 10:49:06;;;;;;;0.00;0.00;;;33.80;75.90;226.50;231333.00;;;;5035353;28;20194;-71
2022/07/25 10:51:36;;;;;;;0.00;0.00;;;33.60;75.40;226.50;231333.00;;;;5035455;28;20195;-72
2022/07/25 10:54:15;;;;;;;0.00;0.00;;;33.60;75.50;226.50;231333.00;;;;5035003;28;20680;-72